createdAt,value
2018-05-23T00:00:31.205Z,55.29
2018-05-23T00:01:31.194Z,55.19
2018-05-23T00:02:31.457Z,54.33
2018-05-23T00:03:31.172Z,54.13
2018-05-23T00:04:31.171Z,53.91
2018-05-23T00:05:31.415Z,52.19
2018-05-23T00:06:31.403Z,52.19
2018-05-23T00:07:31.401Z,52.4
2018-05-23T00:08:31.116Z,52.09
2018-05-23T00:09:31.380Z,52.79
2018-05-23T00:10:31.093Z,52.89
2018-05-23T00:11:31.082Z,52.79
2018-05-23T00:12:31.341Z,52.28
2018-05-23T00:13:31.062Z,51.81
2018-05-23T00:14:31.315Z,52.09
2018-05-23T00:15:31.306Z,52.19
2018-05-23T00:16:31.028Z,52.09
2018-05-23T00:17:31.017Z,52.28
2018-05-23T00:18:31.010Z,52.19
2018-05-23T00:19:30.992Z,52.09
2018-05-23T00:20:31.247Z,52.28
2018-05-23T00:21:31.239Z,52.57
2018-05-23T00:22:30.968Z,52.09
2018-05-23T00:23:31.213Z,52.19
2018-05-23T00:24:31.406Z,52.19
2018-05-23T00:25:30.928Z,52.19
2018-05-23T00:26:31.184Z,52.28
2018-05-23T00:27:31.175Z,52.28
2018-05-23T00:28:31.166Z,52.48
2018-05-23T00:29:30.889Z,52.19
2018-05-23T00:30:31.139Z,52.67
2018-05-23T00:31:31.132Z,53.24
2018-05-23T00:32:31.113Z,53.05
2018-05-23T00:33:31.105Z,53.24
2018-05-23T00:34:31.093Z,53.24
2018-05-23T00:35:31.084Z,53.34
2018-05-23T00:36:30.807Z,53.82
2018-05-23T00:37:30.799Z,53.44
2018-05-23T00:38:30.782Z,53.72
2018-05-23T00:39:30.775Z,53.24
2018-05-23T00:40:31.032Z,52.86
2018-05-23T00:41:31.015Z,53.34
2018-05-23T00:42:30.740Z,52.67
2018-05-23T00:43:30.731Z,52.67
2018-05-23T00:44:30.981Z,52
2018-05-23T00:45:30.711Z,52
2018-05-23T00:46:30.961Z,52.28
2018-05-23T00:47:30.956Z,52
2018-05-23T00:48:30.934Z,52.28
2018-05-23T00:49:30.659Z,52.86
2018-05-23T00:50:30.920Z,52.86
2018-05-23T00:51:30.901Z,52.95
2018-05-23T00:52:30.628Z,53.05
2018-05-23T00:53:30.879Z,53.82
2018-05-23T00:54:30.868Z,53.72
2018-05-23T00:55:30.595Z,53.15
2018-05-23T00:56:30.848Z,53.15
2018-05-23T00:57:30.838Z,53.53
2018-05-23T00:58:30.821Z,53.03
2018-05-23T00:59:30.556Z,53.82
2018-05-23T01:00:30.800Z,53.91
2018-05-23T01:01:30.525Z,53.24
2018-05-23T01:02:30.780Z,53.05
2018-05-23T01:03:30.770Z,52.76
2018-05-23T01:04:30.761Z,52.86
2018-05-23T01:05:30.479Z,52.76
2018-05-23T01:06:30.471Z,52.76
2018-05-23T01:07:30.731Z,52.57
2018-05-23T01:08:30.447Z,52.48
2018-05-23T01:09:30.699Z,52.16
2018-05-23T01:10:30.691Z,52.48
2018-05-23T01:11:30.707Z,52.57
2018-05-23T01:12:30.664Z,52.74
2018-05-23T01:13:30.392Z,52.76
2018-05-23T01:14:30.385Z,53.41
2018-05-23T01:15:30.632Z,53.22
2018-05-23T01:16:30.622Z,51.78
2018-05-23T01:17:30.608Z,51.59
2018-05-23T01:18:30.599Z,51.2
2018-05-23T01:19:30.322Z,51.4
2018-05-23T01:20:30.576Z,51.1
2018-05-23T01:21:30.567Z,50.82
2018-05-23T01:22:30.294Z,50.63
2018-05-23T01:23:30.274Z,50.92
2018-05-23T01:24:30.532Z,50.63
2018-05-23T01:25:30.259Z,50.05
2018-05-23T01:26:30.505Z,49.86
2018-05-23T01:27:30.230Z,50.15
2018-05-23T01:28:30.223Z,50.05
2018-05-23T01:29:30.475Z,49.86
2018-05-23T01:30:30.464Z,49.86
2018-05-23T01:31:30.466Z,50.05
2018-05-23T01:32:30.173Z,49.86
2018-05-23T01:33:30.430Z,50.05
2018-05-23T01:34:30.421Z,50.73
2018-05-23T01:35:30.406Z,50.73
2018-05-23T01:36:30.132Z,50.24
2018-05-23T01:37:30.388Z,49.86
2018-05-23T01:38:30.372Z,49.76
2018-05-23T01:39:30.096Z,49.96
2018-05-23T01:40:30.350Z,49.76
2018-05-23T01:41:30.344Z,49.38
2018-05-23T01:42:30.331Z,49
2018-05-23T01:43:30.313Z,49.48
2018-05-23T01:44:30.305Z,49.57
2018-05-23T01:45:30.294Z,50.05
2018-05-23T01:46:30.278Z,50.15
2018-05-23T01:47:30.003Z,50.34
2018-05-23T01:48:30.260Z,49.19
2018-05-23T01:49:30.247Z,47.94
2018-05-23T01:50:30.234Z,47.75
2018-05-23T01:51:30.230Z,47.75
2018-05-23T01:52:30.215Z,47.37
2018-05-23T01:53:30.200Z,47.08
2018-05-23T01:54:29.929Z,46.89
2018-05-23T01:55:30.182Z,47.46
2018-05-23T01:56:29.900Z,47.94
2018-05-23T01:57:30.159Z,47.46
2018-05-23T01:58:30.149Z,47.27
2018-05-23T01:59:30.129Z,48.13
2018-05-23T02:00:29.856Z,46.98
2018-05-23T02:01:29.849Z,46.79
2018-05-23T02:02:29.834Z,46.79
2018-05-23T02:03:29.828Z,46.98
2018-05-23T02:04:30.018Z,46.6
2018-05-23T02:05:29.817Z,46.5
2018-05-23T02:06:29.790Z,46.89
2018-05-23T02:07:30.040Z,46.79
2018-05-23T02:08:29.766Z,46.7
2018-05-23T02:09:30.017Z,46.89
2018-05-23T02:10:30.003Z,46.31
2018-05-23T02:11:29.998Z,46.7
2018-05-23T02:12:29.982Z,46.7
2018-05-23T02:13:29.745Z,46.7
2018-05-23T02:14:29.706Z,46.98
2018-05-23T02:15:29.685Z,46.89
2018-05-23T02:16:29.672Z,46.6
2018-05-23T02:17:29.656Z,46.6
2018-05-23T02:18:29.912Z,46.98
2018-05-23T02:19:29.640Z,46.7
2018-05-23T02:20:29.891Z,47.37
2018-05-23T02:21:29.611Z,47.94
2018-05-23T02:22:29.608Z,47.75
2018-05-23T02:23:29.587Z,48.04
2018-05-23T02:24:30.048Z,47.85
2018-05-23T02:25:29.567Z,47.56
2018-05-23T02:26:29.826Z,48.04
2018-05-23T02:27:29.806Z,48.04
2018-05-23T02:28:29.800Z,48.43
2018-05-23T02:29:29.520Z,49
2018-05-23T02:30:29.782Z,49
2018-05-23T02:31:29.776Z,51.2
2018-05-23T02:32:29.959Z,49.96
2018-05-23T02:33:29.751Z,50.43
2018-05-23T02:34:29.744Z,52.07
2018-05-23T02:35:29.731Z,50.82
2018-05-23T02:36:29.705Z,51.97
2018-05-23T02:37:29.433Z,51.87
2018-05-23T02:38:29.680Z,52.36
2018-05-23T02:39:29.668Z,52.26
2018-05-23T02:40:29.662Z,52.45
2018-05-23T02:41:29.651Z,51.97
2018-05-23T02:42:29.635Z,51.78
2018-05-23T02:43:29.626Z,51.87
2018-05-23T02:44:29.619Z,49.86
2018-05-23T02:45:29.602Z,49.1
2018-05-23T02:46:29.592Z,49
2018-05-23T02:47:29.588Z,49.1
2018-05-23T02:48:29.575Z,49.76
2018-05-23T02:49:29.556Z,49.48
2018-05-23T02:50:29.290Z,49
2018-05-23T02:51:29.533Z,48.9
2018-05-23T02:52:29.260Z,48.43
2018-05-23T02:53:29.244Z,48.04
2018-05-23T02:54:29.494Z,48.13
2018-05-23T02:55:29.489Z,48.13
2018-05-23T02:56:29.208Z,48.43
2018-05-23T02:57:29.462Z,48.43
2018-05-23T02:58:29.452Z,48.33
2018-05-23T02:59:29.448Z,48.04
2018-05-23T03:00:29.432Z,48.23
2018-05-23T03:01:29.420Z,47.75
2018-05-23T03:02:29.416Z,48.13
2018-05-23T03:03:29.397Z,47.75
2018-05-23T03:04:29.122Z,47.94
2018-05-23T03:05:29.376Z,47.66
2018-05-23T03:06:29.356Z,48.04
2018-05-23T03:07:29.351Z,49.19
2018-05-23T03:08:29.067Z,49.19
2018-05-23T03:09:29.065Z,49
2018-05-23T03:10:29.312Z,49.38
2018-05-23T03:11:29.037Z,49.57
2018-05-23T03:12:29.289Z,49.57
2018-05-23T03:13:29.284Z,49.19
2018-05-23T03:14:29.469Z,49.1
2018-05-23T03:15:29.257Z,49.29
2018-05-23T03:16:29.260Z,48.4
2018-05-23T03:17:29.235Z,47.85
2018-05-23T03:18:29.220Z,47.08
2018-05-23T03:19:29.205Z,47.25
2018-05-23T03:20:29.199Z,46.89
2018-05-23T03:21:29.196Z,46.6
2018-05-23T03:22:29.179Z,46.6
2018-05-23T03:23:29.171Z,46.5
2018-05-23T03:24:28.890Z,46.7
2018-05-23T03:25:28.874Z,46.5
2018-05-23T03:26:29.125Z,46.39
2018-05-23T03:27:29.112Z,46.48
2018-05-23T03:28:29.103Z,46.41
2018-05-23T03:29:29.090Z,46.19
2018-05-23T03:30:29.079Z,46.19
2018-05-23T03:31:29.088Z,45.93
2018-05-23T03:32:28.794Z,46.29
2018-05-23T03:33:29.052Z,45.83
2018-05-23T03:34:29.035Z,45.64
2018-05-23T03:35:28.759Z,45.52
2018-05-23T03:36:29.012Z,45.62
2018-05-23T03:37:28.999Z,45.43
2018-05-23T03:38:28.726Z,45.23
2018-05-23T03:39:28.978Z,45.04
2018-05-23T03:40:28.704Z,44.76
2018-05-23T03:41:28.687Z,44.47
2018-05-23T03:42:28.940Z,43.51
2018-05-23T03:43:28.665Z,43.32
2018-05-23T03:44:28.914Z,43.03
2018-05-23T03:45:28.645Z,43.03
2018-05-23T03:46:28.630Z,42.84
2018-05-23T03:47:28.879Z,42.74
2018-05-23T03:48:28.867Z,42.94
2018-05-23T03:49:28.861Z,43.03
2018-05-23T03:50:28.583Z,43.03
2018-05-23T03:51:28.568Z,43.9
2018-05-23T03:52:28.821Z,43.8
2018-05-23T03:53:28.811Z,43.9
2018-05-23T03:54:28.820Z,44.37
2018-05-23T03:55:28.905Z,43.44
2018-05-23T03:56:28.772Z,43.41
2018-05-23T03:57:28.498Z,43.32
2018-05-23T03:58:28.488Z,43.03
2018-05-23T03:59:28.473Z,43.13
2018-05-23T04:00:28.461Z,43.7
2018-05-23T04:01:28.725Z,43.99
2018-05-23T04:02:28.442Z,43.99
2018-05-23T04:03:28.693Z,44.37
2018-05-23T04:04:28.414Z,43.82
2018-05-23T04:05:28.675Z,44.37
2018-05-23T04:06:28.658Z,44.37
2018-05-23T04:07:28.388Z,44.66
2018-05-23T04:08:28.365Z,44.47
2018-05-23T04:09:28.618Z,44.85
2018-05-23T04:10:28.611Z,44.76
2018-05-23T04:11:28.601Z,45.04
2018-05-23T04:12:28.587Z,44.37
2018-05-23T04:13:28.576Z,44.95
2018-05-23T04:14:28.563Z,44.97
2018-05-23T04:15:28.757Z,45.14
2018-05-23T04:16:28.274Z,44.68
2018-05-23T04:17:28.536Z,45.07
2018-05-23T04:18:28.253Z,45.14
2018-05-23T04:19:28.236Z,45.16
2018-05-23T04:20:28.490Z,45.16
2018-05-23T04:21:28.479Z,45.16
2018-05-23T04:22:28.467Z,45.07
2018-05-23T04:23:28.193Z,45.45
2018-05-23T04:24:28.389Z,45.83
2018-05-23T04:25:28.442Z,46.03
2018-05-23T04:26:28.424Z,45.93
2018-05-23T04:27:28.414Z,45.36
2018-05-23T04:28:28.397Z,45.16
2018-05-23T04:29:28.124Z,45.23
2018-05-23T04:30:28.118Z,45.43
2018-05-23T04:31:28.365Z,45.23
2018-05-23T04:32:28.237Z,44.78
2018-05-23T04:33:28.090Z,44.2
2018-05-23T04:34:28.063Z,44.3
2018-05-23T04:35:28.060Z,44.87
2018-05-23T04:36:28.309Z,45.07
2018-05-23T04:37:28.298Z,45.45
2018-05-23T04:38:28.282Z,45.64
2018-05-23T04:39:28.481Z,45.83
2018-05-23T04:40:28.270Z,46.03
2018-05-23T04:41:27.981Z,45.16
2018-05-23T04:42:27.979Z,45.54
2018-05-23T04:43:28.226Z,45.26
2018-05-23T04:44:28.216Z,45.45
2018-05-23T04:45:27.950Z,45.26
2018-05-23T04:46:28.193Z,45.26
2018-05-23T04:47:28.195Z,45.36
2018-05-23T04:48:28.169Z,45.36
2018-05-23T04:49:28.160Z,45.45
2018-05-23T04:50:28.143Z,45.36
2018-05-23T04:51:28.138Z,45.26
2018-05-23T04:52:28.119Z,45.36
2018-05-23T04:53:28.191Z,45.36
2018-05-23T04:54:28.098Z,45.64
2018-05-23T04:55:28.086Z,45.36
2018-05-23T04:56:28.074Z,45.26
2018-05-23T04:57:28.067Z,45.07
2018-05-23T04:58:27.795Z,45.26
2018-05-23T04:59:27.781Z,45.64
2018-05-23T05:00:28.034Z,46.22
2018-05-23T05:01:27.756Z,46.41
2018-05-23T05:02:28.208Z,46.89
2018-05-23T05:03:27.736Z,46.79
2018-05-23T05:04:27.717Z,46.6
2018-05-23T05:05:27.975Z,46.89
2018-05-23T05:06:27.965Z,46.7
2018-05-23T05:07:27.960Z,46.79
2018-05-23T05:08:27.940Z,47.46
2018-05-23T05:09:27.659Z,47.68
2018-05-23T05:10:27.657Z,46.89
2018-05-23T05:11:27.906Z,46.6
2018-05-23T05:12:27.628Z,46.5
2018-05-23T05:13:27.887Z,46.24
2018-05-23T05:14:27.933Z,46.14
2018-05-23T05:15:27.589Z,46.53
2018-05-23T05:16:27.584Z,46.81
2018-05-23T05:17:27.571Z,46.81
2018-05-23T05:18:27.824Z,46.5
2018-05-23T05:19:27.975Z,46.62
2018-05-23T05:20:27.797Z,46.62
2018-05-23T05:21:27.789Z,46.72
2018-05-23T05:22:27.775Z,46.81
2018-05-23T05:23:27.783Z,47.58
2018-05-23T05:24:27.493Z,47.68
2018-05-23T05:25:27.481Z,47.49
2018-05-23T05:26:27.738Z,47.49
2018-05-23T05:27:27.464Z,47.97
2018-05-23T05:28:27.447Z,46.62
2018-05-23T05:29:27.434Z,46.62
2018-05-23T05:30:27.691Z,47.01
2018-05-23T05:31:27.679Z,46.62
2018-05-23T05:32:27.670Z,47.68
2018-05-23T05:33:27.656Z,48.64
2018-05-23T05:34:27.385Z,49.33
2018-05-23T05:35:27.373Z,49.21
2018-05-23T05:36:27.622Z,49.72
2018-05-23T05:37:27.623Z,49.24
2018-05-23T05:38:27.602Z,50.1
2018-05-23T05:39:27.592Z,50.58
2018-05-23T05:40:27.311Z,51.06
2018-05-23T05:41:27.575Z,50.58
2018-05-23T05:42:27.563Z,50.49
2018-05-23T05:43:27.553Z,50.78
2018-05-23T05:44:27.278Z,50.96
2018-05-23T05:45:27.535Z,51.35
2018-05-23T05:46:27.251Z,51.06
2018-05-23T05:47:27.505Z,51.93
2018-05-23T05:48:27.491Z,51.83
2018-05-23T05:49:27.221Z,51.64
2018-05-23T05:50:27.478Z,52.02
2018-05-23T05:51:27.190Z,52.5
2018-05-23T05:52:27.449Z,52.6
2018-05-23T05:53:27.434Z,52.6
2018-05-23T05:54:27.433Z,52.69
2018-05-23T05:55:27.416Z,52.69
2018-05-23T05:56:27.407Z,52.79
2018-05-23T05:57:27.135Z,52.79
2018-05-23T05:58:27.392Z,51.83
2018-05-23T05:59:27.115Z,52.79
2018-05-23T06:00:27.357Z,52.79
2018-05-23T06:01:27.091Z,52.5
2018-05-23T06:02:27.076Z,53.2
2018-05-23T06:03:27.331Z,53.49
2018-05-23T06:04:27.056Z,53.87
2018-05-23T06:05:27.310Z,54.06
2018-05-23T06:06:27.033Z,53.87
2018-05-23T06:07:27.305Z,53.87
2018-05-23T06:08:27.281Z,53.58
2018-05-23T06:09:27.081Z,51.57
2018-05-23T06:10:27.253Z,52.34
2018-05-23T06:11:27.243Z,52.72
2018-05-23T06:12:26.970Z,52.14
2018-05-23T06:13:26.960Z,51.76
2018-05-23T06:14:27.255Z,52.72
2018-05-23T06:15:27.204Z,52.72
2018-05-23T06:16:27.194Z,53.01
2018-05-23T06:17:27.185Z,53.49
2018-05-23T06:18:27.174Z,54
2018-05-23T06:19:27.162Z,54.09
2018-05-23T06:20:27.148Z,53.97
2018-05-23T06:21:27.139Z,53.9
2018-05-23T06:22:26.982Z,55.15
2018-05-23T06:23:27.121Z,55.34
2018-05-23T06:24:27.310Z,55.05
2018-05-23T06:25:27.100Z,57.17
2018-05-23T06:26:26.823Z,57.07
2018-05-23T06:27:27.081Z,57.26
2018-05-23T06:28:26.809Z,56.59
2018-05-23T06:29:26.794Z,56.78
2018-05-23T06:30:26.875Z,58.22
2018-05-23T06:31:27.043Z,58.42
2018-05-23T06:32:27.036Z,58.99
2018-05-23T06:33:26.767Z,57.36
2018-05-23T06:34:26.741Z,55.24
2018-05-23T06:35:26.740Z,56.78
2018-05-23T06:36:26.721Z,57.75
2018-05-23T06:37:26.710Z,56.78
2018-05-23T06:38:26.979Z,58.22
2018-05-23T06:39:26.697Z,58.03
2018-05-23T06:40:26.947Z,58.45
2018-05-23T06:41:26.938Z,59.86
2018-05-23T06:42:26.925Z,59.6
2018-05-23T06:43:27.021Z,58.54
2018-05-23T06:44:26.650Z,58.25
2018-05-23T06:45:26.898Z,58.35
2018-05-23T06:46:26.892Z,58.25
2018-05-23T06:47:26.615Z,58.25
2018-05-23T06:48:26.604Z,58.35
2018-05-23T06:49:26.854Z,57.97
2018-05-23T06:50:26.846Z,58.92
2018-05-23T06:51:26.573Z,59.69
2018-05-23T06:52:26.827Z,57.87
2018-05-23T06:53:26.555Z,56.91
2018-05-23T06:54:26.813Z,58.15
2018-05-23T06:55:26.534Z,59.79
2018-05-23T06:56:26.527Z,60.37
2018-05-23T06:57:26.784Z,60.69
2018-05-23T06:58:26.509Z,60.97
2018-05-23T06:59:26.496Z,61.55
2018-05-23T07:00:26.489Z,62.03
2018-05-23T07:01:26.741Z,62.51
2018-05-23T07:02:26.468Z,63.95
2018-05-23T07:03:26.723Z,63.28
2018-05-23T07:04:26.715Z,61.84
2018-05-23T07:05:26.710Z,62.8
2018-05-23T07:06:26.698Z,64.05
2018-05-23T07:07:26.422Z,63.02
2018-05-23T07:08:26.504Z,63.79
2018-05-23T07:09:26.403Z,63.99
2018-05-23T07:10:26.399Z,64.76
2018-05-23T07:11:26.387Z,65.14
2018-05-23T07:12:26.648Z,65.33
2018-05-23T07:13:26.631Z,66.2
2018-05-23T07:14:26.359Z,65.05
2018-05-23T07:15:26.611Z,65.72
2018-05-23T07:16:26.602Z,66.78
2018-05-23T07:17:26.600Z,66.68
2018-05-23T07:18:26.591Z,67
2018-05-23T07:19:26.317Z,67.49
2018-05-23T07:20:26.569Z,71.24
2018-05-23T07:21:26.563Z,70.28
2018-05-23T07:22:26.554Z,69.51
2018-05-23T07:23:26.280Z,71.43
2018-05-23T07:24:26.270Z,71.72
2018-05-23T07:25:26.263Z,70.95
2018-05-23T07:26:26.252Z,71.43
2018-05-23T07:27:26.245Z,74.8
2018-05-23T07:28:26.388Z,73.46
2018-05-23T07:29:26.226Z,73.65
2018-05-23T07:30:26.479Z,75.19
2018-05-23T07:31:26.505Z,76.25
2018-05-23T07:32:26.469Z,75.96
2018-05-23T07:33:26.466Z,76.92
2018-05-23T07:34:26.450Z,75.51
2018-05-23T07:35:26.446Z,75.8
2018-05-23T07:36:26.441Z,74.55
2018-05-23T07:37:26.429Z,74.16
2018-05-23T07:38:26.485Z,74.36
2018-05-23T07:39:26.145Z,75.32
2018-05-23T07:40:26.135Z,76.38
2018-05-23T07:41:26.395Z,76.86
2018-05-23T07:42:26.131Z,77.92
2018-05-23T07:43:26.377Z,80.91
2018-05-23T07:44:26.373Z,80.43
2018-05-23T07:45:26.359Z,79.66
2018-05-23T07:46:26.355Z,78.83
2018-05-23T07:47:26.347Z,81.24
2018-05-23T07:48:26.348Z,79.41
2018-05-23T07:49:26.329Z,79.21
2018-05-23T07:50:26.334Z,79.6
2018-05-23T07:51:26.316Z,78.25
2018-05-23T07:52:26.311Z,80.79
2018-05-23T07:53:26.302Z,82.82
2018-05-23T07:54:26.029Z,82.05
2018-05-23T07:55:26.282Z,88.45
2018-05-23T07:56:26.280Z,84.89
2018-05-23T07:57:26.285Z,86.28
2018-05-23T07:58:26.268Z,91.49
2018-05-23T07:59:26.269Z,86.76
2018-05-23T08:00:26.251Z,87.44
2018-05-23T08:01:25.976Z,88.02
2018-05-23T08:02:25.970Z,87.53
2018-05-23T08:03:26.228Z,89.95
2018-05-23T08:04:26.223Z,88.69
2018-05-23T08:05:26.218Z,91.88
2018-05-23T08:06:26.206Z,92.46
2018-05-23T08:07:25.936Z,94.48
2018-05-23T08:08:26.192Z,94.68
2018-05-23T08:09:25.919Z,92.32
2018-05-23T08:10:26.184Z,92.8
2018-05-23T08:11:26.175Z,90.09
2018-05-23T08:12:25.904Z,89.9
2018-05-23T08:13:25.901Z,91.64
2018-05-23T08:14:26.155Z,93.76
2018-05-23T08:15:26.146Z,94.68
2018-05-23T08:16:26.141Z,92.36
2018-05-23T08:17:26.135Z,93.52
2018-05-23T08:18:25.860Z,94.58
2018-05-23T08:19:26.123Z,96.03
2018-05-23T08:20:26.108Z,94.1
2018-05-23T08:21:26.105Z,97.47
2018-05-23T08:22:26.094Z,97.09
2018-05-23T08:23:26.085Z,98.49
2018-05-23T08:24:26.487Z,97.91
2018-05-23T08:25:26.071Z,99.99
2018-05-23T08:26:26.066Z,99.99
2018-05-23T08:27:26.062Z,99.99
2018-05-23T08:28:25.796Z,99.99
2018-05-23T08:29:26.050Z,99.99
2018-05-23T08:30:25.775Z,99.99
2018-05-23T08:31:26.038Z,99.99
2018-05-23T08:32:25.762Z,99.99
2018-05-23T08:33:26.021Z,99.99
2018-05-23T08:34:26.021Z,99.99
2018-05-23T08:35:25.745Z,99.99
2018-05-23T08:36:26.082Z,99.99
2018-05-23T08:37:26.006Z,99.99
2018-05-23T08:38:25.993Z,99.99
2018-05-23T08:39:25.721Z,99.99
2018-05-23T08:40:25.979Z,99.99
2018-05-23T08:41:25.711Z,99.99
2018-05-23T08:42:25.989Z,99.99
2018-05-23T08:43:25.693Z,99.99
2018-05-23T08:44:25.955Z,99.99
2018-05-23T08:45:25.949Z,99.99
2018-05-23T08:46:25.677Z,99.99
2018-05-23T08:47:25.934Z,99.99
2018-05-23T08:48:25.928Z,99.99
2018-05-23T08:49:26.037Z,99.99
2018-05-23T08:50:25.929Z,99.99
2018-05-23T08:51:25.912Z,99.99
2018-05-23T08:52:25.643Z,99.99
2018-05-23T08:53:25.636Z,99.99
2018-05-23T08:54:25.898Z,99.99
2018-05-23T08:55:25.887Z,99.99
2018-05-23T08:56:25.617Z,99.99
2018-05-23T08:57:25.873Z,99.99
2018-05-23T08:58:25.869Z,99.99
2018-05-23T08:59:25.603Z,99.99
2018-05-23T09:00:25.594Z,99.99
2018-05-23T09:01:25.865Z,99.99
2018-05-23T09:02:25.847Z,99.99
2018-05-23T09:03:25.576Z,99.99
2018-05-23T09:04:25.846Z,99.99
2018-05-23T09:05:25.835Z,99.99
2018-05-23T09:06:25.832Z,99.99
2018-05-23T09:07:25.556Z,99.99
2018-05-23T09:08:25.550Z,99.99
2018-05-23T09:09:25.566Z,99.99
2018-05-23T09:10:25.809Z,99.99
2018-05-23T09:11:25.532Z,99.99
2018-05-23T09:12:26.062Z,99.99
2018-05-23T09:13:25.789Z,99.99
2018-05-23T09:14:25.519Z,99.99
2018-05-23T09:15:25.517Z,99.99
2018-05-23T09:16:25.777Z,99.99
2018-05-23T09:17:25.771Z,99.99
2018-05-23T09:18:25.768Z,99.99
2018-05-23T09:19:25.763Z,95.34
2018-05-23T09:20:25.754Z,92.06
2018-05-23T09:21:25.485Z,99.99
2018-05-23T09:22:25.749Z,99.99
2018-05-23T09:23:25.742Z,99.99
2018-05-23T09:24:25.473Z,99.99
2018-05-23T09:25:25.837Z,99.99
2018-05-23T09:26:25.727Z,99.99
2018-05-23T09:27:25.716Z,96.17
2018-05-23T09:28:25.722Z,95.25
2018-05-23T09:29:25.706Z,95.34
2018-05-23T09:30:25.701Z,98.44
2018-05-23T09:31:25.701Z,94.28
2018-05-23T09:32:25.695Z,99.11
2018-05-23T09:33:25.690Z,99.69
2018-05-23T09:34:25.415Z,99.02
2018-05-23T09:35:25.683Z,99.99
2018-05-23T09:36:25.675Z,99.99
2018-05-23T09:37:25.676Z,99.99
2018-05-23T09:38:25.397Z,99.99
2018-05-23T09:39:25.657Z,99.99
2018-05-23T09:40:25.658Z,99.99
2018-05-23T09:41:25.378Z,99.84
2018-05-23T09:42:25.379Z,99.99
2018-05-23T09:43:25.374Z,94.53
2018-05-23T09:44:25.633Z,92.21
2018-05-23T09:45:25.710Z,99.94
2018-05-23T09:46:25.623Z,99.99
2018-05-23T09:47:25.620Z,99.99
2018-05-23T09:48:25.619Z,99.99
2018-05-23T09:49:25.608Z,98.58
2018-05-23T09:50:25.339Z,99.99
2018-05-23T09:51:25.331Z,99.99
2018-05-23T09:52:25.325Z,95.68
2018-05-23T09:53:25.323Z,97.23
2018-05-23T09:54:25.578Z,94.91
2018-05-23T09:55:25.317Z,94.62
2018-05-23T09:56:25.573Z,96.7
2018-05-23T09:57:25.561Z,99.99
2018-05-23T09:58:25.567Z,97.86
2018-05-23T09:59:25.630Z,95.93
2018-05-23T10:00:25.286Z,98.05
2018-05-23T10:01:25.576Z,99.99
2018-05-23T10:02:25.270Z,99.99
2018-05-23T10:03:25.544Z,99.99
2018-05-23T10:04:25.268Z,99.99
2018-05-23T10:05:25.254Z,99.99
2018-05-23T10:06:25.248Z,98.05
2018-05-23T10:07:25.239Z,99.99
2018-05-23T10:08:25.506Z,99.99
2018-05-23T10:09:25.232Z,99.99
2018-05-23T10:10:25.487Z,99.99
2018-05-23T10:11:25.483Z,99.99
2018-05-23T10:12:25.480Z,99.99
2018-05-23T10:13:25.471Z,97.96
2018-05-23T10:14:25.468Z,99.99
2018-05-23T10:15:25.474Z,99.99
2018-05-23T10:16:25.464Z,99.99
2018-05-23T10:17:25.187Z,99.99
2018-05-23T10:18:25.443Z,96.65
2018-05-23T10:19:25.438Z,99.99
2018-05-23T10:20:25.249Z,99.99
2018-05-23T10:21:25.431Z,99.99
2018-05-23T10:22:25.155Z,95.44
2018-05-23T10:23:25.157Z,98.63
2018-05-23T10:24:25.150Z,99.46
2018-05-23T10:25:25.621Z,93.36
2018-05-23T10:26:25.459Z,95.68
2018-05-23T10:27:25.405Z,93.46
2018-05-23T10:28:25.400Z,98.88
2018-05-23T10:29:25.391Z,94.67
2018-05-23T10:30:25.116Z,91.47
2018-05-23T10:31:25.381Z,91.38
2018-05-23T10:32:25.374Z,92.39
2018-05-23T10:33:25.467Z,90.26
2018-05-23T10:34:25.373Z,85.55
2018-05-23T10:35:25.364Z,88.85
2018-05-23T10:36:25.356Z,91.56
2018-05-23T10:37:25.357Z,84.78
2018-05-23T10:38:25.348Z,83.81
2018-05-23T10:39:25.089Z,85.17
2018-05-23T10:40:25.076Z,83.42
2018-05-23T10:41:25.075Z,84.3
2018-05-23T10:42:25.071Z,78.38
2018-05-23T10:43:25.336Z,78.34
2018-05-23T10:44:25.074Z,78.15
2018-05-23T10:45:25.069Z,80.77
2018-05-23T10:46:25.069Z,77.96
2018-05-23T10:47:25.324Z,79.02
2018-05-23T10:48:25.327Z,80.67
2018-05-23T10:49:25.316Z,78.54
2018-05-23T10:50:25.311Z,78.34
2018-05-23T10:51:25.304Z,82.12
2018-05-23T10:52:25.042Z,85.41
2018-05-23T10:53:25.039Z,78.25
2018-05-23T10:54:25.038Z,83.96
2018-05-23T10:55:25.294Z,81.64
2018-05-23T10:56:25.021Z,79.8
2018-05-23T10:57:25.282Z,80.38
2018-05-23T10:58:25.017Z,79.8
2018-05-23T10:59:25.279Z,82.17
2018-05-23T11:00:25.273Z,81.68
2018-05-23T11:01:25.303Z,78.58
2018-05-23T11:02:25.279Z,76.93
2018-05-23T11:03:25.264Z,78.38
2018-05-23T11:04:24.995Z,76.64
2018-05-23T11:05:25.256Z,76.74
2018-05-23T11:06:25.250Z,77.28
2018-05-23T11:07:24.988Z,77.76
2018-05-23T11:08:25.243Z,82.41
2018-05-23T11:09:25.277Z,83.18
2018-05-23T11:10:25.240Z,80.09
2018-05-23T11:11:24.972Z,80.87
2018-05-23T11:12:25.233Z,78.87
2018-05-23T11:13:24.957Z,80.8
2018-05-23T11:14:25.227Z,81.97
2018-05-23T11:15:25.340Z,82.59
2018-05-23T11:16:25.223Z,81.91
2018-05-23T11:17:25.213Z,81.13
2018-05-23T11:18:25.220Z,80.55
2018-05-23T11:19:25.214Z,83.85
2018-05-23T11:20:25.217Z,84.14
2018-05-23T11:21:24.940Z,82.98
2018-05-23T11:22:24.931Z,84.63
2018-05-23T11:23:25.191Z,81.97
2018-05-23T11:24:24.921Z,78.58
2018-05-23T11:25:25.181Z,78.29
2018-05-23T11:26:25.190Z,79.84
2018-05-23T11:27:25.175Z,79.16
2018-05-23T11:28:24.906Z,80.96
2018-05-23T11:29:25.169Z,80.67
2018-05-23T11:30:25.170Z,85.03
2018-05-23T11:31:25.170Z,86.77
2018-05-23T11:32:24.888Z,82.12
2018-05-23T11:33:25.161Z,83.73
2018-05-23T11:34:24.884Z,87.79
2018-05-23T11:35:24.876Z,90.7
2018-05-23T11:36:24.868Z,87.7
2018-05-23T11:37:25.134Z,89.29
2018-05-23T11:38:25.133Z,94.13
2018-05-23T11:39:25.132Z,90.7
2018-05-23T11:40:25.118Z,90.45
2018-05-23T11:41:25.115Z,94.62
2018-05-23T11:42:24.846Z,95.49
2018-05-23T11:43:25.107Z,95.05
2018-05-23T11:44:25.104Z,93.41
2018-05-23T11:45:24.832Z,86.48
2018-05-23T11:46:25.165Z,88.85
2018-05-23T11:47:25.098Z,95.34
2018-05-23T11:48:24.819Z,96.41
2018-05-23T11:49:25.085Z,95.05
2018-05-23T11:50:25.073Z,92.4
2018-05-23T11:51:24.802Z,99.36
2018-05-23T11:52:25.066Z,93.36
2018-05-23T11:53:25.057Z,95.49
2018-05-23T11:54:24.788Z,96.55
2018-05-23T11:55:25.052Z,99.07
2018-05-23T11:56:25.047Z,99.99
2018-05-23T11:57:24.772Z,95.39
2018-05-23T11:58:24.766Z,97.62
2018-05-23T11:59:25.030Z,97.28
2018-05-23T12:00:25.023Z,99.99
2018-05-23T12:01:25.022Z,99.99
2018-05-23T12:02:25.017Z,99.99
2018-05-23T12:03:25.011Z,99.99
2018-05-23T12:04:25.019Z,99.99
2018-05-23T12:05:25.005Z,99.99
2018-05-23T12:06:24.729Z,99.99
2018-05-23T12:07:24.990Z,99.99
2018-05-23T12:08:24.713Z,99.07
2018-05-23T12:09:24.714Z,98.93
2018-05-23T12:10:25.090Z,99.99
2018-05-23T12:11:24.965Z,99.99
2018-05-23T12:12:24.964Z,99.99
2018-05-23T12:13:24.960Z,99.99
2018-05-23T12:14:24.953Z,99.99
2018-05-23T12:15:24.945Z,99.99
2018-05-23T12:16:24.942Z,99.99
2018-05-23T12:17:24.666Z,99.99
2018-05-23T12:18:24.929Z,99.99
2018-05-23T12:19:24.922Z,99.99
2018-05-23T12:20:24.930Z,99.99
2018-05-23T12:21:24.648Z,99.99
2018-05-23T12:22:24.969Z,99.99
2018-05-23T12:23:24.646Z,99.99
2018-05-23T12:24:24.904Z,99.99
2018-05-23T12:25:24.829Z,99.99
2018-05-23T12:26:24.625Z,99.99
2018-05-23T12:27:24.890Z,99.99
2018-05-23T12:28:24.881Z,99.99
2018-05-23T12:29:24.879Z,99.99
2018-05-23T12:30:24.601Z,99.99
2018-05-23T12:31:24.868Z,95.97
2018-05-23T12:32:24.866Z,95.1
2018-05-23T12:33:24.595Z,99.55
2018-05-23T12:34:24.853Z,99.99
2018-05-23T12:35:24.847Z,99.99
2018-05-23T12:36:24.573Z,99.99
2018-05-23T12:37:24.836Z,99.07
2018-05-23T12:38:24.832Z,98.68
2018-05-23T12:39:24.832Z,93.74
2018-05-23T12:40:24.825Z,93.65
2018-05-23T12:41:24.812Z,92.49
2018-05-23T12:42:24.545Z,97.38
2018-05-23T12:43:24.817Z,94.42
2018-05-23T12:44:24.799Z,92.24
2018-05-23T12:45:24.794Z,89.04
2018-05-23T12:46:24.788Z,85.36
2018-05-23T12:47:24.791Z,89.58
2018-05-23T12:48:24.784Z,87.98
2018-05-23T12:49:24.775Z,91.95
2018-05-23T12:50:24.778Z,86.82
2018-05-23T12:51:24.774Z,83.27
2018-05-23T12:52:24.757Z,86.66
2018-05-23T12:53:24.766Z,87.82
2018-05-23T12:54:24.485Z,88.02
2018-05-23T12:55:24.483Z,85.5